sensor_id;sensor_type;location;lat;lon;timestamp;pressure;altitude;pressure_sealevel;temperature;humidity
5053;BME280;2545;50.892;5.740;2023-01-31T00:01:18;56390.53;;;-142.21;100.00
5053;BME280;2545;50.892;5.740;2023-01-31T00:03:43;56414.06;;;-142.21;100.00
5053;BME280;2545;50.892;5.740;2023-01-31T00:08:37;56435.66;;;-142.21;100.00
5053;BME280;2545;50.892;5.740;2023-01-31T00:11:03;56404.28;;;-142.21;100.00
5053;BME280;2545;50.892;5.740;2023-01-31T00:13:28;56402.31;;;-142.21;100.00
5053;BME280;2545;50.892;5.740;2023-01-31T00:15:57;56402.31;;;-142.21;100.00
5053;BME280;2545;50.892;5.740;2023-01-31T00:18:22;56418.00;;;-142.21;100.00
5053;BME280;2545;50.892;5.740;2023-01-31T00:20:48;56402.31;;;-142.21;100.00
5053;BME280;2545;50.892;5.740;2023-01-31T00:23:13;56410.16;;;-142.21;100.00
5053;BME280;2545;50.892;5.740;2023-01-31T00:25:39;56402.31;;;-142.21;100.00
5053;BME280;2545;50.892;5.740;2023-01-31T00:28:04;56390.53;;;-142.21;100.00
5053;BME280;2545;50.892;5.740;2023-01-31T00:30:29;56418.00;;;-142.21;100.00
5053;BME280;2545;50.892;5.740;2023-01-31T00:32:55;56404.28;;;-142.21;100.00
5053;BME280;2545;50.892;5.740;2023-01-31T00:35:20;56410.16;;;-142.21;100.00
5053;BME280;2545;50.892;5.740;2023-01-31T00:37:45;56388.59;;;-142.21;100.00
5053;BME280;2545;50.892;5.740;2023-01-31T00:40:11;56380.75;;;-142.21;100.00
5053;BME280;2545;50.892;5.740;2023-01-31T00:42:36;56423.88;;;-142.21;100.00
5053;BME280;2545;50.892;5.740;2023-01-31T00:45:03;56410.16;;;-142.21;100.00
5053;BME280;2545;50.892;5.740;2023-01-31T00:47:29;56435.66;;;-142.21;100.00
5053;BME280;2545;50.892;5.740;2023-01-31T00:49:54;56410.16;;;-142.21;100.00
5053;BME280;2545;50.892;5.740;2023-01-31T00:52:19;56404.28;;;-142.21;100.00
5053;BME280;2545;50.892;5.740;2023-01-31T00:54:45;56365.06;;;-142.21;100.00
5053;BME280;2545;50.892;5.740;2023-01-31T00:57:10;56388.59;;;-142.21;100.00
5053;BME280;2545;50.892;5.740;2023-01-31T00:59:35;56384.66;;;-142.21;100.00
5053;BME280;2545;50.892;5.740;2023-01-31T01:02:01;56386.63;;;-142.21;100.00
5053;BME280;2545;50.892;5.740;2023-01-31T01:04:26;56443.50;;;-142.21;100.00
5053;BME280;2545;50.892;5.740;2023-01-31T01:06:51;56400.34;;;-142.21;100.00
5053;BME280;2545;50.892;5.740;2023-01-31T01:09:16;56396.44;;;-142.21;100.00
5053;BME280;2545;50.892;5.740;2023-01-31T01:11:42;56421.91;;;-142.21;100.00
5053;BME280;2545;50.892;5.740;2023-01-31T01:14:07;56429.75;;;-142.21;100.00
5053;BME280;2545;50.892;5.740;2023-01-31T01:16:35;56400.34;;;-142.21;100.00
5053;BME280;2545;50.892;5.740;2023-01-31T01:19:05;56418.00;;;-142.21;100.00
5053;BME280;2545;50.892;5.740;2023-01-31T01:21:31;56400.34;;;-142.21;100.00
5053;BME280;2545;50.892;5.740;2023-01-31T01:24:02;56400.34;;;-142.21;100.00
5053;BME280;2545;50.892;5.740;2023-01-31T01:26:29;56427.81;;;-142.21;100.00
5053;BME280;2545;50.892;5.740;2023-01-31T01:28:56;56418.00;;;-142.21;100.00
5053;BME280;2545;50.892;5.740;2023-01-31T01:31:23;56394.47;;;-142.21;100.00
5053;BME280;2545;50.892;5.740;2023-01-31T01:33:55;56435.66;;;-142.21;100.00
5053;BME280;2545;50.892;5.740;2023-01-31T01:36:21;56372.91;;;-142.21;100.00
5053;BME280;2545;50.892;5.740;2023-01-31T01:38:47;56414.06;;;-142.21;100.00
5053;BME280;2545;50.892;5.740;2023-01-31T01:41:13;56390.53;;;-142.21;100.00
5053;BME280;2545;50.892;5.740;2023-01-31T01:46:06;56386.63;;;-142.21;100.00
5053;BME280;2545;50.892;5.740;2023-01-31T01:48:31;56453.28;;;-142.21;100.00
5053;BME280;2545;50.892;5.740;2023-01-31T01:50:58;56416.03;;;-142.21;100.00
5053;BME280;2545;50.892;5.740;2023-01-31T01:53:26;56423.88;;;-142.21;100.00
5053;BME280;2545;50.892;5.740;2023-01-31T01:56:07;56427.81;;;-142.21;100.00
5053;BME280;2545;50.892;5.740;2023-01-31T01:58:47;56418.00;;;-142.21;100.00
5053;BME280;2545;50.892;5.740;2023-01-31T02:01:16;56410.16;;;-142.21;100.00
5053;BME280;2545;50.892;5.740;2023-01-31T02:03:43;56410.16;;;-142.21;100.00
5053;BME280;2545;50.892;5.740;2023-01-31T02:06:09;56394.47;;;-142.21;100.00
5053;BME280;2545;50.892;5.740;2023-01-31T02:08:37;56394.47;;;-142.21;100.00
5053;BME280;2545;50.892;5.740;2023-01-31T02:11:16;56392.50;;;-142.21;100.00
5053;BME280;2545;50.892;5.740;2023-01-31T02:13:45;56427.81;;;-142.21;100.00
5053;BME280;2545;50.892;5.740;2023-01-31T02:16:11;56433.69;;;-142.21;100.00
5053;BME280;2545;50.892;5.740;2023-01-31T02:18:37;56476.81;;;-142.21;100.00
5053;BME280;2545;50.892;5.740;2023-01-31T02:35:11;56402.31;;;-142.21;100.00
5053;BME280;2545;50.892;5.740;2023-01-31T02:37:49;56404.28;;;-142.21;100.00
5053;BME280;2545;50.892;5.740;2023-01-31T02:43:19;56398.38;;;-142.21;100.00
5053;BME280;2545;50.892;5.740;2023-01-31T02:46:06;56467.03;;;-142.21;100.00
5053;BME280;2545;50.892;5.740;2023-01-31T02:51:14;56412.13;;;-142.21;100.00
5053;BME280;2545;50.892;5.740;2023-01-31T02:53:50;56386.63;;;-142.21;100.00
5053;BME280;2545;50.892;5.740;2023-01-31T02:56:20;56374.84;;;-142.21;100.00
5053;BME280;2545;50.892;5.740;2023-01-31T02:58:59;56416.03;;;-142.21;100.00
5053;BME280;2545;50.892;5.740;2023-01-31T03:02:00;56382.69;;;-142.21;100.00
5053;BME280;2545;50.892;5.740;2023-01-31T03:04:32;56412.13;;;-142.21;100.00
5053;BME280;2545;50.892;5.740;2023-01-31T03:07:01;56388.59;;;-142.21;100.00
5053;BME280;2545;50.892;5.740;2023-01-31T03:09:39;56419.97;;;-142.21;100.00
5053;BME280;2545;50.892;5.740;2023-01-31T03:22:45;56398.38;;;-142.21;100.00
5053;BME280;2545;50.892;5.740;2023-01-31T03:25:14;56441.53;;;-142.21;100.00
5053;BME280;2545;50.892;5.740;2023-01-31T03:27:44;56441.53;;;-142.21;100.00
5053;BME280;2545;50.892;5.740;2023-01-31T03:30:15;56445.44;;;-142.21;100.00
5053;BME280;2545;50.892;5.740;2023-01-31T03:32:54;56423.88;;;-142.21;100.00
5053;BME280;2545;50.892;5.740;2023-01-31T03:35:23;56421.91;;;-142.21;100.00
5053;BME280;2545;50.892;5.740;2023-01-31T03:37:57;56418.00;;;-142.21;100.00
5053;BME280;2545;50.892;5.740;2023-01-31T03:40:29;56394.47;;;-142.21;100.00
5053;BME280;2545;50.892;5.740;2023-01-31T03:43:01;56410.16;;;-142.21;100.00
5053;BME280;2545;50.892;5.740;2023-01-31T03:45:35;56439.56;;;-142.21;100.00
5053;BME280;2545;50.892;5.740;2023-01-31T03:48:03;56400.34;;;-142.21;100.00
5053;BME280;2545;50.892;5.740;2023-01-31T03:50:43;56435.66;;;-142.21;100.00
5053;BME280;2545;50.892;5.740;2023-01-31T03:53:19;56439.56;;;-142.21;100.00
5053;BME280;2545;50.892;5.740;2023-01-31T03:55:59;56398.38;;;-142.21;100.00
5053;BME280;2545;50.892;5.740;2023-01-31T03:58:30;56396.44;;;-142.21;100.00
5053;BME280;2545;50.892;5.740;2023-01-31T04:01:01;56382.69;;;-142.21;100.00
5053;BME280;2545;50.892;5.740;2023-01-31T04:03:41;56419.97;;;-142.21;100.00
5053;BME280;2545;50.892;5.740;2023-01-31T04:06:09;56394.47;;;-142.21;100.00
5053;BME280;2545;50.892;5.740;2023-01-31T04:08:35;56394.47;;;-142.21;100.00
5053;BME280;2545;50.892;5.740;2023-01-31T04:11:08;56431.72;;;-142.21;100.00
5053;BME280;2545;50.892;5.740;2023-01-31T04:13:34;56410.16;;;-142.21;100.00
5053;BME280;2545;50.892;5.740;2023-01-31T04:16:01;56404.28;;;-142.21;100.00
5053;BME280;2545;50.892;5.740;2023-01-31T04:18:27;56433.69;;;-142.21;100.00
5053;BME280;2545;50.892;5.740;2023-01-31T04:20:52;56402.31;;;-142.21;100.00
5053;BME280;2545;50.892;5.740;2023-01-31T04:23:18;56406.22;;;-142.21;100.00
5053;BME280;2545;50.892;5.740;2023-01-31T04:25:44;56433.69;;;-142.21;100.00
5053;BME280;2545;50.892;5.740;2023-01-31T04:28:09;56406.22;;;-142.21;100.00
5053;BME280;2545;50.892;5.740;2023-01-31T04:30:35;56388.59;;;-142.21;100.00
5053;BME280;2545;50.892;5.740;2023-01-31T04:33:01;56404.28;;;-142.21;100.00
5053;BME280;2545;50.892;5.740;2023-01-31T04:35:27;56382.69;;;-142.21;100.00
5053;BME280;2545;50.892;5.740;2023-01-31T04:37:53;56437.59;;;-142.21;100.00
5053;BME280;2545;50.892;5.740;2023-01-31T04:40:18;56398.38;;;-142.21;100.00
5053;BME280;2545;50.892;5.740;2023-01-31T04:42:43;56384.66;;;-142.21;100.00
5053;BME280;2545;50.892;5.740;2023-01-31T04:45:09;56441.53;;;-142.21;100.00
5053;BME280;2545;50.892;5.740;2023-01-31T04:47:35;56441.53;;;-142.21;100.00
5053;BME280;2545;50.892;5.740;2023-01-31T04:50:00;56423.88;;;-142.21;100.00
5053;BME280;2545;50.892;5.740;2023-01-31T04:52:25;56370.94;;;-142.21;100.00
5053;BME280;2545;50.892;5.740;2023-01-31T04:54:51;56382.69;;;-142.21;100.00
5053;BME280;2545;50.892;5.740;2023-01-31T04:57:16;56376.81;;;-142.21;100.00
5053;BME280;2545;50.892;5.740;2023-01-31T04:59:41;56421.91;;;-142.21;100.00
5053;BME280;2545;50.892;5.740;2023-01-31T05:02:07;56406.22;;;-142.21;100.00
5053;BME280;2545;50.892;5.740;2023-01-31T05:04:32;56437.59;;;-142.21;100.00
5053;BME280;2545;50.892;5.740;2023-01-31T05:06:58;56390.53;;;-142.21;100.00
5053;BME280;2545;50.892;5.740;2023-01-31T05:09:23;56394.47;;;-142.21;100.00
5053;BME280;2545;50.892;5.740;2023-01-31T05:11:49;56423.88;;;-142.21;100.00
5053;BME280;2545;50.892;5.740;2023-01-31T05:14:15;56390.53;;;-142.21;100.00
5053;BME280;2545;50.892;5.740;2023-01-31T05:16:40;56390.53;;;-142.21;100.00
5053;BME280;2545;50.892;5.740;2023-01-31T05:19:08;56400.34;;;-142.21;100.00
5053;BME280;2545;50.892;5.740;2023-01-31T05:21:33;56408.19;;;-142.21;100.00
5053;BME280;2545;50.892;5.740;2023-01-31T05:24:18;56386.63;;;-142.21;100.00
5053;BME280;2545;50.892;5.740;2023-01-31T05:26:44;56431.72;;;-142.21;100.00
5053;BME280;2545;50.892;5.740;2023-01-31T05:29:09;56419.97;;;-142.21;100.00
5053;BME280;2545;50.892;5.740;2023-01-31T05:31:34;56414.06;;;-142.21;100.00
5053;BME280;2545;50.892;5.740;2023-01-31T05:34:00;56439.56;;;-142.21;100.00
5053;BME280;2545;50.892;5.740;2023-01-31T05:36:25;56421.91;;;-142.21;100.00
5053;BME280;2545;50.892;5.740;2023-01-31T05:38:50;56380.75;;;-142.21;100.00
5053;BME280;2545;50.892;5.740;2023-01-31T05:41:16;56418.00;;;-142.21;100.00
5053;BME280;2545;50.892;5.740;2023-01-31T05:43:41;56418.00;;;-142.21;100.00
5053;BME280;2545;50.892;5.740;2023-01-31T05:46:06;56416.03;;;-142.21;100.00
5053;BME280;2545;50.892;5.740;2023-01-31T05:48:32;56437.59;;;-142.21;100.00
5053;BME280;2545;50.892;5.740;2023-01-31T05:50:57;56396.44;;;-142.21;100.00
5053;BME280;2545;50.892;5.740;2023-01-31T05:53:22;56404.28;;;-142.21;100.00
5053;BME280;2545;50.892;5.740;2023-01-31T05:55:49;56410.16;;;-142.21;100.00
5053;BME280;2545;50.892;5.740;2023-01-31T05:58:14;56437.59;;;-142.21;100.00
5053;BME280;2545;50.892;5.740;2023-01-31T06:00:40;56433.69;;;-142.21;100.00
5053;BME280;2545;50.892;5.740;2023-01-31T06:03:05;56418.00;;;-142.21;100.00
5053;BME280;2545;50.892;5.740;2023-01-31T06:05:31;56410.16;;;-142.21;100.00
5053;BME280;2545;50.892;5.740;2023-01-31T06:07:56;56412.13;;;-142.21;100.00
5053;BME280;2545;50.892;5.740;2023-01-31T06:10:22;56418.00;;;-142.21;100.00
5053;BME280;2545;50.892;5.740;2023-01-31T06:12:47;56406.22;;;-142.21;100.00
5053;BME280;2545;50.892;5.740;2023-01-31T06:15:13;56378.78;;;-142.21;100.00
5053;BME280;2545;50.892;5.740;2023-01-31T06:17:38;56378.78;;;-142.21;100.00
5053;BME280;2545;50.892;5.740;2023-01-31T06:20:04;56412.13;;;-142.21;100.00
5053;BME280;2545;50.892;5.740;2023-01-31T06:22:29;56402.31;;;-142.21;100.00
5053;BME280;2545;50.892;5.740;2023-01-31T06:24:55;56431.72;;;-142.21;100.00
5053;BME280;2545;50.892;5.740;2023-01-31T06:27:20;56392.50;;;-142.21;100.00
5053;BME280;2545;50.892;5.740;2023-01-31T06:29:45;56384.66;;;-142.21;100.00
5053;BME280;2545;50.892;5.740;2023-01-31T06:32:11;56410.16;;;-142.21;100.00
5053;BME280;2545;50.892;5.740;2023-01-31T06:34:37;56425.84;;;-142.21;100.00
5053;BME280;2545;50.892;5.740;2023-01-31T06:37:02;56394.47;;;-142.21;100.00
5053;BME280;2545;50.892;5.740;2023-01-31T06:39:28;56386.63;;;-142.21;100.00
5053;BME280;2545;50.892;5.740;2023-01-31T06:41:53;56398.38;;;-142.21;100.00
5053;BME280;2545;50.892;5.740;2023-01-31T06:44:18;56398.38;;;-142.21;100.00
5053;BME280;2545;50.892;5.740;2023-01-31T06:46:43;56404.28;;;-142.21;100.00
5053;BME280;2545;50.892;5.740;2023-01-31T06:49:09;56398.38;;;-142.21;99.60
5053;BME280;2545;50.892;5.740;2023-01-31T06:51:34;56382.69;;;-142.21;99.05
5053;BME280;2545;50.892;5.740;2023-01-31T06:54:00;56367.00;;;-142.21;98.96
5053;BME280;2545;50.892;5.740;2023-01-31T06:56:25;56406.22;;;-142.21;98.23
5053;BME280;2545;50.892;5.740;2023-01-31T06:58:50;56412.13;;;-142.21;97.36
5053;BME280;2545;50.892;5.740;2023-01-31T07:01:16;56406.22;;;-142.21;97.14
5053;BME280;2545;50.892;5.740;2023-01-31T07:03:41;56429.75;;;-142.21;97.17
5053;BME280;2545;50.892;5.740;2023-01-31T07:06:08;56410.16;;;-142.21;96.69
5053;BME280;2545;50.892;5.740;2023-01-31T07:08:35;56429.75;;;-142.21;96.92
5053;BME280;2545;50.892;5.740;2023-01-31T07:11:01;56386.63;;;-142.21;96.03
5053;BME280;2545;50.892;5.740;2023-01-31T07:13:27;56418.00;;;-142.21;96.12
5053;BME280;2545;50.892;5.740;2023-01-31T07:15:55;56439.56;;;-142.21;95.95
5053;BME280;2545;50.892;5.740;2023-01-31T07:18:20;56386.63;;;-142.21;95.74
5053;BME280;2545;50.892;5.740;2023-01-31T07:20:45;56441.53;;;-142.21;95.06
5053;BME280;2545;50.892;5.740;2023-01-31T07:23:11;56394.47;;;-142.21;94.54
5053;BME280;2545;50.892;5.740;2023-01-31T07:25:37;56372.91;;;-142.21;95.10
5053;BME280;2545;50.892;5.740;2023-01-31T07:28:03;56384.66;;;-142.21;95.15
5053;BME280;2545;50.892;5.740;2023-01-31T07:30:29;56392.50;;;-142.21;95.05
5053;BME280;2545;50.892;5.740;2023-01-31T07:32:55;56431.72;;;-142.21;95.31
5053;BME280;2545;50.892;5.740;2023-01-31T07:35:21;56400.34;;;-142.21;95.90
5053;BME280;2545;50.892;5.740;2023-01-31T07:37:50;56400.34;;;-142.21;95.96
5053;BME280;2545;50.892;5.740;2023-01-31T07:40:15;56384.66;;;-142.21;96.41
5053;BME280;2545;50.892;5.740;2023-01-31T07:42:41;56408.19;;;-142.21;96.40
5053;BME280;2545;50.892;5.740;2023-01-31T07:45:10;56431.72;;;-142.21;96.27
5053;BME280;2545;50.892;5.740;2023-01-31T07:47:35;56402.31;;;-142.21;96.53
5053;BME280;2545;50.892;5.740;2023-01-31T07:50:01;56431.72;;;-142.21;96.98
5053;BME280;2545;50.892;5.740;2023-01-31T07:52:26;56418.00;;;-142.21;97.16
5053;BME280;2545;50.892;5.740;2023-01-31T07:54:52;56414.06;;;-142.21;96.82
5053;BME280;2545;50.892;5.740;2023-01-31T07:57:17;56427.81;;;-142.21;97.04
5053;BME280;2545;50.892;5.740;2023-01-31T07:59:43;56406.22;;;-142.21;97.40
5053;BME280;2545;50.892;5.740;2023-01-31T08:02:13;56406.22;;;-142.21;97.87
5053;BME280;2545;50.892;5.740;2023-01-31T08:04:57;56421.91;;;-142.21;98.76
5053;BME280;2545;50.892;5.740;2023-01-31T08:07:23;56396.44;;;-142.21;99.15
5053;BME280;2545;50.892;5.740;2023-01-31T08:09:48;56402.31;;;-142.21;99.24
5053;BME280;2545;50.892;5.740;2023-01-31T08:12:14;56357.22;;;-142.21;99.99
5053;BME280;2545;50.892;5.740;2023-01-31T08:14:40;56414.06;;;-142.21;100.00
5053;BME280;2545;50.892;5.740;2023-01-31T08:17:05;56408.19;;;-142.21;100.00
5053;BME280;2545;50.892;5.740;2023-01-31T08:19:32;56382.69;;;-142.21;100.00
5053;BME280;2545;50.892;5.740;2023-01-31T08:21:58;56412.13;;;-142.21;100.00
5053;BME280;2545;50.892;5.740;2023-01-31T08:24:24;56457.22;;;-142.21;100.00
5053;BME280;2545;50.892;5.740;2023-01-31T08:26:49;56425.84;;;-142.21;100.00
5053;BME280;2545;50.892;5.740;2023-01-31T08:29:14;56386.63;;;-142.21;100.00
5053;BME280;2545;50.892;5.740;2023-01-31T08:31:40;56400.34;;;-142.21;100.00
5053;BME280;2545;50.892;5.740;2023-01-31T08:34:06;56414.06;;;-142.21;100.00
5053;BME280;2545;50.892;5.740;2023-01-31T08:36:32;56394.47;;;-142.21;100.00
5053;BME280;2545;50.892;5.740;2023-01-31T08:38:58;56414.06;;;-142.21;100.00
5053;BME280;2545;50.892;5.740;2023-01-31T08:41:25;56386.63;;;-142.21;100.00
5053;BME280;2545;50.892;5.740;2023-01-31T08:43:51;56382.69;;;-142.21;100.00
5053;BME280;2545;50.892;5.740;2023-01-31T08:46:17;56412.13;;;-142.21;100.00
5053;BME280;2545;50.892;5.740;2023-01-31T08:48:42;56427.81;;;-142.21;100.00
5053;BME280;2545;50.892;5.740;2023-01-31T08:51:11;56410.16;;;-142.21;100.00
5053;BME280;2545;50.892;5.740;2023-01-31T08:53:38;56418.00;;;-142.21;100.00
5053;BME280;2545;50.892;5.740;2023-01-31T08:56:05;56418.00;;;-142.21;100.00
5053;BME280;2545;50.892;5.740;2023-01-31T08:58:32;56404.28;;;-142.21;100.00
5053;BME280;2545;50.892;5.740;2023-01-31T09:01:06;56439.56;;;-142.21;100.00
5053;BME280;2545;50.892;5.740;2023-01-31T09:03:32;56396.44;;;-142.21;100.00
5053;BME280;2545;50.892;5.740;2023-01-31T09:06:05;56414.06;;;-142.21;100.00
5053;BME280;2545;50.892;5.740;2023-01-31T09:08:31;56412.13;;;-142.21;100.00
5053;BME280;2545;50.892;5.740;2023-01-31T09:10:57;56394.47;;;-142.21;100.00
5053;BME280;2545;50.892;5.740;2023-01-31T09:13:25;56380.75;;;-142.21;100.00
5053;BME280;2545;50.892;5.740;2023-01-31T09:16:02;56418.00;;;-142.21;100.00
5053;BME280;2545;50.892;5.740;2023-01-31T09:18:28;56406.22;;;-142.21;100.00
5053;BME280;2545;50.892;5.740;2023-01-31T09:20:54;56455.25;;;-142.21;100.00
5053;BME280;2545;50.892;5.740;2023-01-31T09:23:19;56418.00;;;-142.21;100.00
5053;BME280;2545;50.892;5.740;2023-01-31T09:25:54;56398.38;;;-142.21;100.00
5053;BME280;2545;50.892;5.740;2023-01-31T09:28:21;56423.88;;;-142.21;100.00
5053;BME280;2545;50.892;5.740;2023-01-31T09:30:47;56406.22;;;-142.21;100.00
5053;BME280;2545;50.892;5.740;2023-01-31T09:33:13;56425.84;;;-142.21;100.00
5053;BME280;2545;50.892;5.740;2023-01-31T09:35:39;56414.06;;;-142.21;100.00
5053;BME280;2545;50.892;5.740;2023-01-31T09:38:04;56410.16;;;-142.21;100.00
5053;BME280;2545;50.892;5.740;2023-01-31T09:40:32;56400.34;;;-142.21;100.00
5053;BME280;2545;50.892;5.740;2023-01-31T09:43:00;56378.78;;;-142.21;100.00
5053;BME280;2545;50.892;5.740;2023-01-31T09:45:34;56412.13;;;-142.21;100.00
5053;BME280;2545;50.892;5.740;2023-01-31T09:48:03;56439.56;;;-142.21;100.00
5053;BME280;2545;50.892;5.740;2023-01-31T09:50:39;56408.19;;;-142.21;100.00
5053;BME280;2545;50.892;5.740;2023-01-31T09:53:05;56402.31;;;-142.21;100.00
5053;BME280;2545;50.892;5.740;2023-01-31T10:01:20;56400.34;;;-142.21;100.00
5053;BME280;2545;50.892;5.740;2023-01-31T10:06:35;56463.09;;;-142.21;100.00
5053;BME280;2545;50.892;5.740;2023-01-31T10:09:16;56423.88;;;-142.21;100.00
5053;BME280;2545;50.892;5.740;2023-01-31T10:12:14;56414.06;;;-142.21;100.00
5053;BME280;2545;50.892;5.740;2023-01-31T10:14:44;56410.16;;;-142.21;100.00
5053;BME280;2545;50.892;5.740;2023-01-31T10:17:27;56425.84;;;-142.21;100.00
5053;BME280;2545;50.892;5.740;2023-01-31T10:20:19;56400.34;;;-142.21;100.00
5053;BME280;2545;50.892;5.740;2023-01-31T10:22:59;56429.75;;;-142.21;100.00
5053;BME280;2545;50.892;5.740;2023-01-31T10:25:33;56425.84;;;-142.21;100.00
5053;BME280;2545;50.892;5.740;2023-01-31T10:30:40;56410.16;;;-142.21;100.00
5053;BME280;2545;50.892;5.740;2023-01-31T10:33:19;56419.97;;;-142.21;100.00
5053;BME280;2545;50.892;5.740;2023-01-31T10:35:47;56439.56;;;-142.21;100.00
5053;BME280;2545;50.892;5.740;2023-01-31T10:38:26;56419.97;;;-142.21;100.00
5053;BME280;2545;50.892;5.740;2023-01-31T10:41:05;56414.06;;;-142.21;100.00
5053;BME280;2545;50.892;5.740;2023-01-31T10:43:42;56429.75;;;-142.21;100.00
5053;BME280;2545;50.892;5.740;2023-01-31T10:46:13;56419.97;;;-142.21;100.00
5053;BME280;2545;50.892;5.740;2023-01-31T10:48:41;56402.31;;;-142.21;100.00
5053;BME280;2545;50.892;5.740;2023-01-31T10:54:26;56421.91;;;-142.21;100.00
5053;BME280;2545;50.892;5.740;2023-01-31T10:56:53;56412.13;;;-142.21;100.00
5053;BME280;2545;50.892;5.740;2023-01-31T10:59:31;56412.13;;;-142.21;100.00
5053;BME280;2545;50.892;5.740;2023-01-31T11:01:58;56441.53;;;-142.21;100.00
5053;BME280;2545;50.892;5.740;2023-01-31T11:04:31;56451.34;;;-142.21;100.00
5053;BME280;2545;50.892;5.740;2023-01-31T11:06:59;56429.75;;;-142.21;100.00
5053;BME280;2545;50.892;5.740;2023-01-31T11:09:29;56427.81;;;-142.21;100.00
5053;BME280;2545;50.892;5.740;2023-01-31T11:11:59;56449.38;;;-142.21;100.00
5053;BME280;2545;50.892;5.740;2023-01-31T11:14:25;56441.53;;;-142.21;100.00
5053;BME280;2545;50.892;5.740;2023-01-31T11:17:04;56431.72;;;-142.21;100.00
5053;BME280;2545;50.892;5.740;2023-01-31T11:19:37;56404.28;;;-142.21;100.00
5053;BME280;2545;50.892;5.740;2023-01-31T11:22:05;56394.47;;;-142.21;100.00
5053;BME280;2545;50.892;5.740;2023-01-31T11:24:33;56449.38;;;-142.21;100.00
5053;BME280;2545;50.892;5.740;2023-01-31T11:29:33;56431.72;;;-142.21;100.00
5053;BME280;2545;50.892;5.740;2023-01-31T11:32:03;56439.56;;;-142.21;100.00
5053;BME280;2545;50.892;5.740;2023-01-31T11:34:30;56418.00;;;-142.21;100.00
5053;BME280;2545;50.892;5.740;2023-01-31T11:37:17;56435.66;;;-142.21;100.00
5053;BME280;2545;50.892;5.740;2023-01-31T11:39:54;56445.44;;;-142.21;100.00
5053;BME280;2545;50.892;5.740;2023-01-31T11:42:19;56416.03;;;-142.21;100.00
5053;BME280;2545;50.892;5.740;2023-01-31T11:45:09;56404.28;;;-142.21;100.00
5053;BME280;2545;50.892;5.740;2023-01-31T11:47:54;56402.31;;;-142.21;100.00
5053;BME280;2545;50.892;5.740;2023-01-31T11:50:30;56429.75;;;-142.21;100.00
5053;BME280;2545;50.892;5.740;2023-01-31T11:53:02;56427.81;;;-142.21;100.00
5053;BME280;2545;50.892;5.740;2023-01-31T11:55:37;56406.22;;;-142.21;100.00
5053;BME280;2545;50.892;5.740;2023-01-31T11:58:15;56402.31;;;-142.21;100.00
5053;BME280;2545;50.892;5.740;2023-01-31T12:00:51;56425.84;;;-142.21;100.00
5053;BME280;2545;50.892;5.740;2023-01-31T12:03:17;56449.38;;;-142.21;100.00
5053;BME280;2545;50.892;5.740;2023-01-31T12:05:48;56445.44;;;-142.21;100.00
5053;BME280;2545;50.892;5.740;2023-01-31T12:08:37;56408.19;;;-142.21;100.00
5053;BME280;2545;50.892;5.740;2023-01-31T12:11:29;56408.19;;;-142.21;100.00
5053;BME280;2545;50.892;5.740;2023-01-31T12:14:12;56418.00;;;-142.21;100.00
5053;BME280;2545;50.892;5.740;2023-01-31T12:16:38;56429.75;;;-142.21;100.00
5053;BME280;2545;50.892;5.740;2023-01-31T12:24:38;56423.88;;;-142.21;100.00
5053;BME280;2545;50.892;5.740;2023-01-31T12:30:02;56443.50;;;-142.21;100.00
5053;BME280;2545;50.892;5.740;2023-01-31T12:38:15;56425.84;;;-142.21;100.00
5053;BME280;2545;50.892;5.740;2023-01-31T12:41:01;56394.47;;;-142.21;100.00
5053;BME280;2545;50.892;5.740;2023-01-31T12:44:05;56402.31;;;-142.21;100.00
5053;BME280;2545;50.892;5.740;2023-01-31T12:55:49;56425.84;;;-142.21;100.00
5053;BME280;2545;50.892;5.740;2023-01-31T13:01:15;56421.91;;;-142.21;100.00
5053;BME280;2545;50.892;5.740;2023-01-31T13:06:27;56414.06;;;-142.21;100.00
5053;BME280;2545;50.892;5.740;2023-01-31T13:09:03;56412.13;;;-142.21;100.00
5053;BME280;2545;50.892;5.740;2023-01-31T13:11:38;56404.28;;;-142.21;100.00
5053;BME280;2545;50.892;5.740;2023-01-31T13:14:11;56418.00;;;-142.21;100.00
5053;BME280;2545;50.892;5.740;2023-01-31T13:16:43;56394.47;;;-142.21;100.00
5053;BME280;2545;50.892;5.740;2023-01-31T13:19:15;56408.19;;;-142.21;100.00
5053;BME280;2545;50.892;5.740;2023-01-31T13:21:45;56406.22;;;-142.21;100.00
5053;BME280;2545;50.892;5.740;2023-01-31T13:24:14;56433.69;;;-142.21;100.00
5053;BME280;2545;50.892;5.740;2023-01-31T13:27:01;56398.38;;;-142.21;100.00
5053;BME280;2545;50.892;5.740;2023-01-31T13:29:32;56386.63;;;-142.21;100.00
5053;BME280;2545;50.892;5.740;2023-01-31T13:34:44;56390.53;;;-142.21;100.00
5053;BME280;2545;50.892;5.740;2023-01-31T13:37:14;56441.53;;;-142.21;100.00
5053;BME280;2545;50.892;5.740;2023-01-31T13:39:52;56400.34;;;-142.21;100.00
5053;BME280;2545;50.892;5.740;2023-01-31T13:42:19;56431.72;;;-142.21;100.00
5053;BME280;2545;50.892;5.740;2023-01-31T13:44:46;56414.06;;;-142.21;100.00
5053;BME280;2545;50.892;5.740;2023-01-31T13:47:44;56408.19;;;-142.21;100.00
5053;BME280;2545;50.892;5.740;2023-01-31T13:52:48;56416.03;;;-142.21;100.00
5053;BME280;2545;50.892;5.740;2023-01-31T13:55:27;56427.81;;;-142.21;100.00
5053;BME280;2545;50.892;5.740;2023-01-31T13:57:57;56423.88;;;-142.21;100.00
5053;BME280;2545;50.892;5.740;2023-01-31T14:00:37;56365.06;;;-142.21;100.00
5053;BME280;2545;50.892;5.740;2023-01-31T14:16:40;56443.50;;;-142.21;100.00
5053;BME280;2545;50.892;5.740;2023-01-31T14:27:24;56445.44;;;-142.21;100.00
5053;BME280;2545;50.892;5.740;2023-01-31T14:40:59;56427.81;;;-142.21;100.00
5053;BME280;2545;50.892;5.740;2023-01-31T14:43:36;56398.38;;;-142.21;100.00
5053;BME280;2545;50.892;5.740;2023-01-31T14:46:08;56441.53;;;-142.21;100.00
5053;BME280;2545;50.892;5.740;2023-01-31T14:57:26;56421.91;;;-142.21;100.00
5053;BME280;2545;50.892;5.740;2023-01-31T15:07:36;56437.59;;;-142.21;100.00
5053;BME280;2545;50.892;5.740;2023-01-31T15:13:48;56429.75;;;-142.21;100.00
5053;BME280;2545;50.892;5.740;2023-01-31T15:16:27;56425.84;;;-142.21;100.00
5053;BME280;2545;50.892;5.740;2023-01-31T15:19:00;56419.97;;;-142.21;100.00
5053;BME280;2545;50.892;5.740;2023-01-31T15:23:59;56443.50;;;-142.21;100.00